createdAt,value
2016-10-01T00:00:05.598Z,998.70
2016-10-01T00:00:27.306Z,998.73
2016-10-01T00:00:49.015Z,998.71
2016-10-01T00:01:10.732Z,998.64
2016-10-01T00:01:32.440Z,998.69
2016-10-01T00:01:54.154Z,998.61
2016-10-01T00:02:15.875Z,998.72
2016-10-01T00:02:37.593Z,998.70
2016-10-01T00:02:59.312Z,998.67
2016-10-01T00:03:21.026Z,998.62
2016-10-01T00:03:42.857Z,998.66
2016-10-01T00:04:04.566Z,998.56
2016-10-01T00:04:26.275Z,998.66
2016-10-01T00:04:47.983Z,998.63
2016-10-01T00:05:09.705Z,998.56
2016-10-01T00:05:31.415Z,998.69
2016-10-01T00:05:53.127Z,998.62
2016-10-01T00:06:14.832Z,998.60
2016-10-01T00:06:36.543Z,998.67
2016-10-01T00:06:58.264Z,998.66
2016-10-01T00:07:19.981Z,998.61
2016-10-01T00:07:41.691Z,998.58
2016-10-01T00:08:03.402Z,998.68
2016-10-01T00:08:25.120Z,998.62
2016-10-01T00:08:46.828Z,998.67
2016-10-01T00:09:08.541Z,998.62
2016-10-01T00:09:30.263Z,998.53
2016-10-01T00:09:51.986Z,998.61
2016-10-01T00:10:13.699Z,998.62
2016-10-01T00:10:35.431Z,998.70
2016-10-01T00:10:57.156Z,998.68
2016-10-01T00:11:18.866Z,998.60
2016-10-01T00:11:40.581Z,998.68
2016-10-01T00:12:02.297Z,998.67
2016-10-01T00:12:24.012Z,998.63
2016-10-01T00:12:45.719Z,998.67
2016-10-01T00:13:07.436Z,998.63
2016-10-01T00:13:29.145Z,998.66
2016-10-01T00:13:50.867Z,998.61
2016-10-01T00:14:12.578Z,998.58
2016-10-01T00:14:34.293Z,998.60
2016-10-01T00:14:55.998Z,998.65
2016-10-01T00:15:17.723Z,998.60
2016-10-01T00:15:39.439Z,998.75
2016-10-01T00:16:01.145Z,998.62
2016-10-01T00:16:22.860Z,998.65
2016-10-01T00:16:44.572Z,998.58
2016-10-01T00:17:06.284Z,998.60
2016-10-01T00:17:28.000Z,998.70
2016-10-01T00:17:49.767Z,998.64
2016-10-01T00:18:11.478Z,998.62
2016-10-01T00:18:33.196Z,998.74
2016-10-01T00:18:54.908Z,998.75
2016-10-01T00:19:16.626Z,998.69
2016-10-01T00:19:38.351Z,998.59
2016-10-01T00:20:00.067Z,998.45
2016-10-01T00:20:21.783Z,998.59
2016-10-01T00:20:43.493Z,998.42
2016-10-01T00:21:05.212Z,998.40
2016-10-01T00:21:26.919Z,998.56
2016-10-01T00:21:48.633Z,998.46
2016-10-01T00:22:10.344Z,998.48
2016-10-01T00:22:32.195Z,998.46
2016-10-01T00:22:53.906Z,998.40
2016-10-01T00:23:15.623Z,998.42
2016-10-01T00:23:37.339Z,998.50
2016-10-01T00:23:59.052Z,998.53
2016-10-01T00:24:20.766Z,998.48
2016-10-01T00:24:42.483Z,998.44
2016-10-01T00:25:04.192Z,998.49
2016-10-01T00:25:25.900Z,998.62
2016-10-01T00:25:47.621Z,998.58
2016-10-01T00:26:09.340Z,998.61
2016-10-01T00:26:31.062Z,998.50
2016-10-01T00:26:52.777Z,998.51
2016-10-01T00:27:14.488Z,998.41
2016-10-01T00:27:36.203Z,998.37
2016-10-01T00:27:57.948Z,998.32
2016-10-01T00:28:19.782Z,998.35
2016-10-01T00:28:41.494Z,998.25
2016-10-01T00:29:03.204Z,998.19
2016-10-01T00:29:24.912Z,998.22
2016-10-01T00:29:46.635Z,998.31
2016-10-01T00:30:08.370Z,998.29
2016-10-01T00:30:30.092Z,998.35
2016-10-01T00:30:51.810Z,998.29
2016-10-01T00:31:13.528Z,998.26
2016-10-01T00:31:35.247Z,998.28
2016-10-01T00:31:56.978Z,998.29
2016-10-01T00:32:18.688Z,998.24
2016-10-01T00:32:40.398Z,998.32
2016-10-01T00:33:02.121Z,998.25
2016-10-01T00:33:23.852Z,998.21
2016-10-01T00:33:45.578Z,998.29
2016-10-01T00:34:07.276Z,998.24
2016-10-01T00:34:29.002Z,998.36
2016-10-01T00:34:50.734Z,998.18
2016-10-01T00:35:12.461Z,998.27
2016-10-01T00:35:34.172Z,998.20
2016-10-01T00:35:55.887Z,998.52
2016-10-01T00:36:17.600Z,998.40
2016-10-01T00:36:39.321Z,998.42
2016-10-01T00:37:01.078Z,998.39
2016-10-01T00:37:22.802Z,998.32
2016-10-01T00:37:47.310Z,998.34
2016-10-01T00:38:09.022Z,998.35
2016-10-01T00:38:30.732Z,998.24
2016-10-01T00:38:52.457Z,998.23
2016-10-01T00:39:14.168Z,998.24
2016-10-01T00:39:35.869Z,998.20
2016-10-01T00:39:57.577Z,998.20
2016-10-01T00:40:19.297Z,998.20
2016-10-01T00:40:41.010Z,998.20
2016-10-01T00:41:02.724Z,998.28
2016-10-01T00:41:24.434Z,998.27
2016-10-01T00:41:46.143Z,998.32
2016-10-01T00:42:07.874Z,998.39
2016-10-01T00:42:29.583Z,998.38
2016-10-01T00:42:51.300Z,998.34
2016-10-01T00:43:13.013Z,998.37
2016-10-01T00:43:34.719Z,998.32
2016-10-01T00:43:56.427Z,998.35
2016-10-01T00:44:18.139Z,998.32
2016-10-01T00:44:44.634Z,998.28
2016-10-01T00:45:06.348Z,998.22
2016-10-01T00:45:28.056Z,998.25
2016-10-01T00:45:49.771Z,998.25
2016-10-01T00:46:11.486Z,998.21
2016-10-01T00:46:33.202Z,998.20
2016-10-01T00:46:54.910Z,998.18
2016-10-01T00:47:16.623Z,998.26
2016-10-01T00:47:38.337Z,998.21
2016-10-01T00:48:00.053Z,998.17
2016-10-01T00:48:21.790Z,998.07
2016-10-01T00:48:43.509Z,998.09
2016-10-01T00:49:05.224Z,998.22
2016-10-01T00:49:26.946Z,998.15
2016-10-01T00:49:48.668Z,998.27
2016-10-01T00:50:10.382Z,998.25
2016-10-01T00:50:32.093Z,998.23
2016-10-01T00:50:53.813Z,998.22
2016-10-01T00:51:15.523Z,998.22
2016-10-01T00:51:37.231Z,998.18
2016-10-01T00:51:58.949Z,998.23
2016-10-01T00:52:20.654Z,998.28
2016-10-01T00:52:42.377Z,998.32
2016-10-01T00:53:04.089Z,998.36
2016-10-01T00:53:25.794Z,998.35
2016-10-01T00:53:47.506Z,998.24
2016-10-01T00:54:09.215Z,998.26
2016-10-01T00:54:30.927Z,998.22
2016-10-01T00:54:52.658Z,998.25
2016-10-01T00:55:14.337Z,998.26
2016-10-01T00:55:36.050Z,998.22
2016-10-01T00:55:57.773Z,998.22
2016-10-01T00:56:19.490Z,998.22
2016-10-01T00:56:45.974Z,998.22
2016-10-01T00:57:07.693Z,998.17
2016-10-01T00:57:29.406Z,998.17
2016-10-01T00:57:51.132Z,998.16
2016-10-01T00:58:12.847Z,998.21
2016-10-01T00:58:34.553Z,998.28
2016-10-01T00:58:56.264Z,998.21
2016-10-01T00:59:17.991Z,998.23
2016-10-01T00:59:39.704Z,998.20
2016-10-01T01:00:01.410Z,998.13
2016-10-01T01:00:23.126Z,998.04
2016-10-01T01:00:44.839Z,998.10
2016-10-01T01:01:06.915Z,998.05
2016-10-01T01:01:28.627Z,998.09
2016-10-01T01:01:50.352Z,998.04
2016-10-01T01:02:12.060Z,998.00
2016-10-01T01:02:33.775Z,998.11
2016-10-01T01:02:55.618Z,998.07
2016-10-01T01:03:17.259Z,998.06
2016-10-01T01:03:38.972Z,998.12
2016-10-01T01:04:00.684Z,998.08
2016-10-01T01:04:22.393Z,998.08
2016-10-01T01:04:44.312Z,998.06
2016-10-01T01:05:06.021Z,998.05
2016-10-01T01:05:27.737Z,998.11
2016-10-01T01:05:49.459Z,998.06
2016-10-01T01:06:11.177Z,997.93
2016-10-01T01:06:32.886Z,997.88
2016-10-01T01:06:54.601Z,997.94
2016-10-01T01:07:16.331Z,998.03
2016-10-01T01:07:38.111Z,998.04
2016-10-01T01:07:59.829Z,998.07
2016-10-01T01:08:21.548Z,997.99
2016-10-01T01:08:43.257Z,997.99
2016-10-01T01:09:04.967Z,998.02
2016-10-01T01:09:26.677Z,998.02
2016-10-01T01:09:48.386Z,997.97
2016-10-01T01:10:14.875Z,997.90
2016-10-01T01:10:36.588Z,997.92
2016-10-01T01:10:58.301Z,997.95
2016-10-01T01:11:20.018Z,998.02
2016-10-01T01:11:41.729Z,998.03
2016-10-01T01:12:03.461Z,997.92
2016-10-01T01:12:25.179Z,997.88
2016-10-01T01:12:46.883Z,997.92
2016-10-01T01:13:08.587Z,997.87
2016-10-01T01:13:30.333Z,997.92
2016-10-01T01:13:52.040Z,997.84
2016-10-01T01:14:13.752Z,997.83
2016-10-01T01:14:35.474Z,997.79
2016-10-01T01:14:57.189Z,997.80
2016-10-01T01:15:18.897Z,997.91
2016-10-01T01:15:40.609Z,997.90
2016-10-01T01:16:02.329Z,997.91
2016-10-01T01:16:24.037Z,997.85
2016-10-01T01:16:45.740Z,997.76
2016-10-01T01:17:07.468Z,997.83
2016-10-01T01:17:29.181Z,997.79
2016-10-01T01:17:50.894Z,997.71
2016-10-01T01:18:12.681Z,997.69
2016-10-01T01:18:34.412Z,997.74
2016-10-01T01:18:56.127Z,997.69
2016-10-01T01:19:17.843Z,997.61
2016-10-01T01:19:39.567Z,997.60
2016-10-01T01:20:01.279Z,997.69
2016-10-01T01:20:22.995Z,997.71
2016-10-01T01:20:44.706Z,997.58
2016-10-01T01:21:06.421Z,997.56
2016-10-01T01:21:28.131Z,997.60
2016-10-01T01:21:49.841Z,997.62
2016-10-01T01:22:11.550Z,997.63
2016-10-01T01:22:33.259Z,997.64
2016-10-01T01:22:55.100Z,997.55
2016-10-01T01:23:16.824Z,997.64
2016-10-01T01:23:38.537Z,997.71
2016-10-01T01:24:00.247Z,997.66
2016-10-01T01:24:21.957Z,997.70
2016-10-01T01:24:43.683Z,997.54
2016-10-01T01:25:05.401Z,997.54
2016-10-01T01:25:27.113Z,997.54
2016-10-01T01:25:48.822Z,997.63
2016-10-01T01:26:10.532Z,997.69
2016-10-01T01:26:32.235Z,997.60
2016-10-01T01:26:53.947Z,997.60
2016-10-01T01:27:15.662Z,997.64
2016-10-01T01:27:37.382Z,997.62
2016-10-01T01:27:59.106Z,997.61
2016-10-01T01:28:20.802Z,997.49
2016-10-01T01:28:42.518Z,997.57
2016-10-01T01:29:04.230Z,997.50
2016-10-01T01:29:25.958Z,997.61
2016-10-01T01:29:47.668Z,997.56
2016-10-01T01:30:09.385Z,997.64
2016-10-01T01:30:31.090Z,997.61
2016-10-01T01:30:52.802Z,997.62
2016-10-01T01:31:14.501Z,997.59
2016-10-01T01:31:36.215Z,997.53
2016-10-01T01:31:57.938Z,997.59
2016-10-01T01:32:19.640Z,997.62
2016-10-01T01:32:41.357Z,997.57
2016-10-01T01:33:03.070Z,997.58
2016-10-01T01:33:24.782Z,997.57
2016-10-01T01:33:46.495Z,997.53
2016-10-01T01:34:08.201Z,997.51
2016-10-01T01:34:29.923Z,997.48
2016-10-01T01:34:51.644Z,997.47
2016-10-01T01:35:13.349Z,997.46
2016-10-01T01:35:35.057Z,997.47
2016-10-01T01:35:56.761Z,997.53
2016-10-01T01:36:18.467Z,997.53
2016-10-01T01:36:40.187Z,997.53
2016-10-01T01:37:01.894Z,997.63
2016-10-01T01:37:23.596Z,997.70
2016-10-01T01:37:45.308Z,997.71
2016-10-01T01:38:07.010Z,997.59
2016-10-01T01:38:28.722Z,997.61
2016-10-01T01:38:50.431Z,997.65
2016-10-01T01:39:12.150Z,997.60
2016-10-01T01:39:33.874Z,997.61
2016-10-01T01:39:55.592Z,997.59
2016-10-01T01:40:17.306Z,997.64
2016-10-01T01:40:39.023Z,997.67
2016-10-01T01:41:00.738Z,997.60
2016-10-01T01:41:22.447Z,997.66
2016-10-01T01:41:44.160Z,997.61
2016-10-01T01:42:05.867Z,997.54
2016-10-01T01:42:27.579Z,997.41
2016-10-01T01:42:49.397Z,997.42
2016-10-01T01:43:11.105Z,997.41
2016-10-01T01:43:32.815Z,997.51
2016-10-01T01:43:54.525Z,997.48
2016-10-01T01:44:16.234Z,997.51
2016-10-01T01:44:37.968Z,997.46
2016-10-01T01:44:59.676Z,997.49
2016-10-01T01:45:21.391Z,997.52
2016-10-01T01:45:43.102Z,997.51
2016-10-01T01:46:04.850Z,997.42
2016-10-01T01:46:26.562Z,997.54
2016-10-01T01:46:48.266Z,997.44
2016-10-01T01:47:09.978Z,997.52
2016-10-01T01:47:31.685Z,997.48
2016-10-01T01:47:53.396Z,997.54
2016-10-01T01:48:15.109Z,997.52
2016-10-01T01:48:41.603Z,997.52
2016-10-01T01:49:03.323Z,997.50
2016-10-01T01:49:25.039Z,997.57
2016-10-01T01:49:46.763Z,997.49
2016-10-01T01:50:08.473Z,997.50
2016-10-01T01:50:30.188Z,997.54
2016-10-01T01:50:51.904Z,997.45
2016-10-01T01:51:13.604Z,997.43
2016-10-01T01:51:35.317Z,997.47
2016-10-01T01:51:57.030Z,997.58
2016-10-01T01:52:18.742Z,997.50
2016-10-01T01:52:40.453Z,997.48
2016-10-01T01:53:02.180Z,997.41
2016-10-01T01:53:23.899Z,997.39
2016-10-01T01:53:45.612Z,997.41
2016-10-01T01:54:07.323Z,997.41
2016-10-01T01:54:29.035Z,997.43
2016-10-01T01:54:50.745Z,997.46
2016-10-01T01:55:12.453Z,997.43
2016-10-01T01:55:34.166Z,997.40
2016-10-01T01:55:55.877Z,997.41
2016-10-01T01:56:17.589Z,997.40
2016-10-01T01:56:39.304Z,997.36
2016-10-01T01:57:01.031Z,997.37
2016-10-01T01:57:22.722Z,997.33
2016-10-01T01:57:44.431Z,997.31
2016-10-01T01:58:06.141Z,997.47
2016-10-01T01:58:27.843Z,997.40
2016-10-01T01:58:49.558Z,997.36
2016-10-01T01:59:11.266Z,997.31
2016-10-01T01:59:32.972Z,997.36
2016-10-01T01:59:54.686Z,997.45
2016-10-01T02:00:16.419Z,997.39
2016-10-01T02:00:38.127Z,997.39
2016-10-01T02:01:09.384Z,997.41
2016-10-01T02:01:31.097Z,997.40
2016-10-01T02:01:52.824Z,997.44
2016-10-01T02:02:14.535Z,997.49
2016-10-01T02:02:36.239Z,997.46
2016-10-01T02:02:58.005Z,997.44
2016-10-01T02:03:19.716Z,997.42
2016-10-01T02:03:41.430Z,997.43
2016-10-01T02:04:03.142Z,997.38
2016-10-01T02:04:24.860Z,997.34
2016-10-01T02:04:46.566Z,997.35
2016-10-01T02:05:08.276Z,997.38
2016-10-01T02:05:29.996Z,997.39
2016-10-01T02:05:51.697Z,997.36
2016-10-01T02:06:13.400Z,997.35
2016-10-01T02:06:35.105Z,997.33
2016-10-01T02:06:56.830Z,997.38
2016-10-01T02:07:18.549Z,997.38
2016-10-01T02:07:40.261Z,997.38
2016-10-01T02:08:04.636Z,997.41
2016-10-01T02:08:26.341Z,997.42
2016-10-01T02:08:48.064Z,997.35
2016-10-01T02:09:09.783Z,997.35
2016-10-01T02:09:31.496Z,997.36
2016-10-01T02:09:53.209Z,997.34
2016-10-01T02:10:14.929Z,997.26
2016-10-01T02:10:36.633Z,997.29
2016-10-01T02:10:58.469Z,997.31
2016-10-01T02:11:20.184Z,997.28
2016-10-01T02:11:41.899Z,997.24
2016-10-01T02:12:03.615Z,997.24
2016-10-01T02:12:25.321Z,997.20
2016-10-01T02:12:47.039Z,997.30
2016-10-01T02:13:08.754Z,997.25
2016-10-01T02:13:30.466Z,997.28
2016-10-01T02:13:52.176Z,997.32
2016-10-01T02:14:18.658Z,997.45
2016-10-01T02:14:40.374Z,997.32
2016-10-01T02:15:02.091Z,997.32
2016-10-01T02:15:23.798Z,997.27
2016-10-01T02:15:45.516Z,997.23
2016-10-01T02:16:07.231Z,997.28
2016-10-01T02:16:28.943Z,997.27
2016-10-01T02:16:50.668Z,997.22
2016-10-01T02:17:12.375Z,997.26
2016-10-01T02:17:34.082Z,997.19
2016-10-01T02:17:55.801Z,997.23
2016-10-01T02:18:17.509Z,997.23
2016-10-01T02:18:39.216Z,997.24
2016-10-01T02:19:00.943Z,997.24
2016-10-01T02:19:22.651Z,997.28
2016-10-01T02:19:44.358Z,997.25
2016-10-01T02:20:06.068Z,997.25
2016-10-01T02:20:27.788Z,997.25
2016-10-01T02:20:49.500Z,997.19
2016-10-01T02:21:11.212Z,997.27
2016-10-01T02:21:32.918Z,997.24
2016-10-01T02:21:54.629Z,997.26
2016-10-01T02:22:16.339Z,997.24
2016-10-01T02:22:38.044Z,997.35
2016-10-01T02:22:59.762Z,997.35
2016-10-01T02:23:21.468Z,997.31
2016-10-01T02:23:43.184Z,997.30
2016-10-01T02:24:04.879Z,997.27
2016-10-01T02:24:26.588Z,997.23
2016-10-01T02:24:48.297Z,997.21
2016-10-01T02:25:14.779Z,997.29
2016-10-01T02:25:36.499Z,997.30
2016-10-01T02:25:58.207Z,997.28
2016-10-01T02:26:19.922Z,997.26
2016-10-01T02:26:41.635Z,997.18
2016-10-01T02:27:03.362Z,997.22
2016-10-01T02:27:25.075Z,997.12
2016-10-01T02:27:46.783Z,997.06
2016-10-01T02:28:08.488Z,997.06
2016-10-01T02:28:30.211Z,997.11
2016-10-01T02:28:51.920Z,997.06
2016-10-01T02:29:13.630Z,997.08
2016-10-01T02:29:35.337Z,997.11
2016-10-01T02:29:57.047Z,997.11
2016-10-01T02:30:18.757Z,997.19
2016-10-01T02:30:40.468Z,997.10
2016-10-01T02:31:02.175Z,997.10
2016-10-01T02:31:23.883Z,996.96
2016-10-01T02:31:45.611Z,997.02
2016-10-01T02:32:07.321Z,997.02
2016-10-01T02:32:29.032Z,997.03
2016-10-01T02:32:50.742Z,996.98
2016-10-01T02:33:12.468Z,996.98
2016-10-01T02:33:34.179Z,997.01
2016-10-01T02:33:55.885Z,996.95
2016-10-01T02:34:17.603Z,996.89
2016-10-01T02:34:39.314Z,996.95
2016-10-01T02:35:01.024Z,997.02
2016-10-01T02:35:22.735Z,996.94
2016-10-01T02:35:44.447Z,996.90
2016-10-01T02:36:06.188Z,996.85
2016-10-01T02:36:27.903Z,996.85
2016-10-01T02:36:49.622Z,996.87
2016-10-01T02:37:11.333Z,996.97
2016-10-01T02:37:33.048Z,996.93
2016-10-01T02:37:54.754Z,996.89
2016-10-01T02:38:16.472Z,996.92
2016-10-01T02:38:38.218Z,996.90
2016-10-01T02:38:59.935Z,996.85
2016-10-01T02:39:21.644Z,996.81
2016-10-01T02:39:43.350Z,996.90
2016-10-01T02:40:05.061Z,996.85
2016-10-01T02:40:26.774Z,996.83
2016-10-01T02:40:48.506Z,996.81
2016-10-01T02:41:10.217Z,996.79
2016-10-01T02:41:31.929Z,996.79
2016-10-01T02:41:53.644Z,996.86
2016-10-01T02:42:15.359Z,996.84
2016-10-01T02:42:37.066Z,996.81
2016-10-01T02:42:58.774Z,996.78
2016-10-01T02:43:20.482Z,996.79
2016-10-01T02:43:42.202Z,996.75
2016-10-01T02:44:03.910Z,996.77
2016-10-01T02:44:25.626Z,996.74
2016-10-01T02:44:47.342Z,996.77
2016-10-01T02:45:09.066Z,996.82
2016-10-01T02:45:30.775Z,996.80
2016-10-01T02:45:52.496Z,996.82
2016-10-01T02:46:14.208Z,996.79
2016-10-01T02:46:35.920Z,996.74
2016-10-01T02:46:57.627Z,996.81
2016-10-01T02:47:19.347Z,996.84
2016-10-01T02:47:45.833Z,996.86
2016-10-01T02:48:12.314Z,996.76
2016-10-01T02:48:34.057Z,996.79
2016-10-01T02:48:55.750Z,996.74
2016-10-01T02:49:17.459Z,996.67
2016-10-01T02:49:39.170Z,996.79
2016-10-01T02:50:00.915Z,996.79
2016-10-01T02:50:22.628Z,996.76
2016-10-01T02:50:44.342Z,996.78
2016-10-01T02:51:06.062Z,996.66
2016-10-01T02:51:27.775Z,996.70
2016-10-01T02:51:49.489Z,996.75
2016-10-01T02:52:11.199Z,996.75
2016-10-01T02:52:32.941Z,996.79
2016-10-01T02:52:54.655Z,996.79
2016-10-01T02:53:16.370Z,996.81
2016-10-01T02:53:38.080Z,996.81
2016-10-01T02:53:59.793Z,996.77
2016-10-01T02:54:21.501Z,996.79
2016-10-01T02:54:43.218Z,996.74
2016-10-01T02:55:04.931Z,996.71
2016-10-01T02:55:26.643Z,996.71
2016-10-01T02:55:48.355Z,996.71
2016-10-01T02:56:10.074Z,996.69
2016-10-01T02:56:31.785Z,996.56
2016-10-01T02:56:53.520Z,996.63
2016-10-01T02:57:15.229Z,996.58
2016-10-01T02:57:36.941Z,996.56
2016-10-01T02:57:58.650Z,996.66
2016-10-01T02:58:20.362Z,996.67
2016-10-01T02:58:42.079Z,996.69
2016-10-01T02:59:03.792Z,996.65
2016-10-01T02:59:25.504Z,996.58
2016-10-01T02:59:47.218Z,996.63
2016-10-01T03:00:08.943Z,996.63
2016-10-01T03:00:30.656Z,996.59
2016-10-01T03:00:52.354Z,996.54
2016-10-01T03:01:14.070Z,996.59
2016-10-01T03:01:35.793Z,996.48
2016-10-01T03:01:57.503Z,996.48
2016-10-01T03:02:19.216Z,996.54
2016-10-01T03:02:40.940Z,996.57
2016-10-01T03:03:02.656Z,996.51
2016-10-01T03:03:24.375Z,996.53
2016-10-01T03:03:46.093Z,996.59
2016-10-01T03:04:07.802Z,996.57
2016-10-01T03:04:29.514Z,996.58
2016-10-01T03:04:51.227Z,996.61
2016-10-01T03:05:12.946Z,996.45
2016-10-01T03:05:34.662Z,996.47
2016-10-01T03:05:56.377Z,996.46
2016-10-01T03:06:18.092Z,996.46
2016-10-01T03:06:39.802Z,996.37
2016-10-01T03:07:01.510Z,996.41
2016-10-01T03:07:23.238Z,996.40
2016-10-01T03:07:44.947Z,996.35
2016-10-01T03:08:06.653Z,996.28
2016-10-01T03:08:28.365Z,996.36
2016-10-01T03:08:50.082Z,996.33
2016-10-01T03:09:11.789Z,996.35
2016-10-01T03:09:33.504Z,996.30
2016-10-01T03:09:55.216Z,996.28
2016-10-01T03:10:16.944Z,996.34
2016-10-01T03:10:38.656Z,996.29
2016-10-01T03:11:00.364Z,996.36
2016-10-01T03:11:22.090Z,996.39
2016-10-01T03:11:43.808Z,996.31
2016-10-01T03:12:05.536Z,996.31
2016-10-01T03:12:27.245Z,996.26
2016-10-01T03:12:48.958Z,996.34
2016-10-01T03:13:10.668Z,996.31
2016-10-01T03:13:32.377Z,996.31
2016-10-01T03:13:58.861Z,996.27
2016-10-01T03:14:20.570Z,996.27
2016-10-01T03:14:42.282Z,996.29
2016-10-01T03:15:03.991Z,996.31
2016-10-01T03:15:25.700Z,996.30
2016-10-01T03:15:47.408Z,996.19
2016-10-01T03:16:09.143Z,996.20
2016-10-01T03:16:30.856Z,996.20
2016-10-01T03:16:52.566Z,996.21
2016-10-01T03:17:14.279Z,996.21
2016-10-01T03:17:35.993Z,996.15
2016-10-01T03:17:57.696Z,996.12
2016-10-01T03:18:19.405Z,996.14
2016-10-01T03:18:41.142Z,996.19
2016-10-01T03:19:02.863Z,996.14
2016-10-01T03:19:24.560Z,996.10
2016-10-01T03:19:46.272Z,996.14
2016-10-01T03:20:07.986Z,996.18
2016-10-01T03:20:29.696Z,996.10
2016-10-01T03:20:51.408Z,996.07
2016-10-01T03:21:13.122Z,996.06
2016-10-01T03:21:34.832Z,996.13
2016-10-01T03:21:56.547Z,996.04
2016-10-01T03:22:18.263Z,996.11
2016-10-01T03:22:39.971Z,996.08
2016-10-01T03:23:01.695Z,996.04
2016-10-01T03:23:23.408Z,996.05
2016-10-01T03:23:45.120Z,996.12
2016-10-01T03:24:06.838Z,996.05
2016-10-01T03:24:28.544Z,996.05
2016-10-01T03:24:50.249Z,996.12
2016-10-01T03:25:11.954Z,996.16
2016-10-01T03:25:33.674Z,996.08
2016-10-01T03:25:55.377Z,996.11
2016-10-01T03:26:17.081Z,996.19
2016-10-01T03:26:38.791Z,996.20
2016-10-01T03:27:00.498Z,996.11
2016-10-01T03:27:22.218Z,996.09
2016-10-01T03:27:43.926Z,996.07
2016-10-01T03:28:05.640Z,996.12
2016-10-01T03:28:27.342Z,996.18
2016-10-01T03:28:49.057Z,996.04
2016-10-01T03:29:10.762Z,996.08
2016-10-01T03:29:32.471Z,996.04
2016-10-01T03:29:54.180Z,996.00
2016-10-01T03:30:15.887Z,996.02
2016-10-01T03:30:37.596Z,996.10
2016-10-01T03:30:59.303Z,996.11
2016-10-01T03:31:21.021Z,996.09
2016-10-01T03:31:42.731Z,996.17
2016-10-01T03:32:04.448Z,996.12
2016-10-01T03:32:26.173Z,996.10
2016-10-01T03:32:47.872Z,996.19
2016-10-01T03:33:09.583Z,996.15
2016-10-01T03:33:31.293Z,996.15
2016-10-01T03:33:53.003Z,996.23
2016-10-01T03:34:14.736Z,996.17
2016-10-01T03:34:36.452Z,996.14
2016-10-01T03:34:58.166Z,996.07
2016-10-01T03:35:19.879Z,996.04
2016-10-01T03:35:41.588Z,996.10
2016-10-01T03:36:03.332Z,996.11
2016-10-01T03:36:25.038Z,996.08
2016-10-01T03:36:46.746Z,996.14
2016-10-01T03:37:08.455Z,996.09
2016-10-01T03:37:30.167Z,996.13
2016-10-01T03:37:51.876Z,996.08
2016-10-01T03:38:13.600Z,996.14
2016-10-01T03:38:35.305Z,996.11
2016-10-01T03:38:57.018Z,996.07
2016-10-01T03:39:18.723Z,996.11
2016-10-01T03:39:40.430Z,996.13
2016-10-01T03:40:02.145Z,996.19
2016-10-01T03:40:23.934Z,996.09
2016-10-01T03:40:45.642Z,996.21
2016-10-01T03:41:07.351Z,996.22
2016-10-01T03:41:29.060Z,996.16
2016-10-01T03:41:50.772Z,996.17
2016-10-01T03:42:12.481Z,996.22
2016-10-01T03:42:34.193Z,996.20
2016-10-01T03:42:55.899Z,996.28
2016-10-01T03:43:17.606Z,996.22
2016-10-01T03:43:39.313Z,996.24
2016-10-01T03:44:01.021Z,996.27
2016-10-01T03:44:22.726Z,996.25
2016-10-01T03:44:44.442Z,996.19
2016-10-01T03:45:06.153Z,996.24
2016-10-01T03:45:27.921Z,996.19
2016-10-01T03:45:49.626Z,996.15
2016-10-01T03:46:11.342Z,996.17
2016-10-01T03:46:33.050Z,996.24
2016-10-01T03:46:54.765Z,996.25
2016-10-01T03:47:16.478Z,996.19
2016-10-01T03:47:38.188Z,996.24
2016-10-01T03:47:59.898Z,996.27
2016-10-01T03:48:21.613Z,996.29
2016-10-01T03:48:43.322Z,996.20
2016-10-01T03:49:05.034Z,996.27
2016-10-01T03:49:26.749Z,996.36
2016-10-01T03:49:48.462Z,996.28
2016-10-01T03:50:10.165Z,996.21
2016-10-01T03:50:31.875Z,996.29
2016-10-01T03:50:53.584Z,996.27
2016-10-01T03:51:15.299Z,996.22
2016-10-01T03:51:37.020Z,996.28
2016-10-01T03:51:58.731Z,996.33
2016-10-01T03:52:20.436Z,996.34
2016-10-01T03:52:42.169Z,996.23
2016-10-01T03:53:03.872Z,996.19
2016-10-01T03:53:25.578Z,996.18
2016-10-01T03:53:47.293Z,996.23
2016-10-01T03:54:09.021Z,996.18
2016-10-01T03:54:30.714Z,996.22
2016-10-01T03:54:52.426Z,996.28
2016-10-01T03:55:14.156Z,996.27
2016-10-01T03:55:35.908Z,996.24
2016-10-01T03:55:57.613Z,996.22
2016-10-01T03:56:19.319Z,996.39
2016-10-01T03:56:41.027Z,996.26
2016-10-01T03:57:02.734Z,996.26
2016-10-01T03:57:24.452Z,996.28
2016-10-01T03:57:46.176Z,996.26
2016-10-01T03:58:07.881Z,996.19
2016-10-01T03:58:29.736Z,996.24
2016-10-01T03:58:51.436Z,996.28
2016-10-01T03:59:13.149Z,996.21
2016-10-01T03:59:34.862Z,996.22
2016-10-01T03:59:56.580Z,996.14
2016-10-01T04:00:18.292Z,996.09
2016-10-01T04:00:40.020Z,996.15
2016-10-01T04:01:01.737Z,996.06
2016-10-01T04:01:23.444Z,996.12
2016-10-01T04:01:45.152Z,996.16
2016-10-01T04:02:06.858Z,996.19
2016-10-01T04:02:28.567Z,996.22
2016-10-01T04:02:50.274Z,996.19
2016-10-01T04:03:11.993Z,996.22
2016-10-01T04:03:33.703Z,996.27
2016-10-01T04:03:55.412Z,996.18
2016-10-01T04:04:17.117Z,996.15
2016-10-01T04:04:38.829Z,996.26
2016-10-01T04:05:00.537Z,996.21
2016-10-01T04:05:22.248Z,996.24
2016-10-01T04:05:43.960Z,996.17
2016-10-01T04:06:05.667Z,996.11
2016-10-01T04:06:27.383Z,996.16
2016-10-01T04:06:49.091Z,996.10
2016-10-01T04:07:10.802Z,996.11
2016-10-01T04:07:32.509Z,996.14
2016-10-01T04:07:54.215Z,996.06
2016-10-01T04:08:15.924Z,996.03
2016-10-01T04:08:37.631Z,996.01
2016-10-01T04:08:59.338Z,996.04
2016-10-01T04:09:21.049Z,996.08
2016-10-01T04:09:42.753Z,996.07
2016-10-01T04:10:04.461Z,996.18
2016-10-01T04:10:26.179Z,996.28
2016-10-01T04:10:47.887Z,996.23
2016-10-01T04:11:09.603Z,996.16
2016-10-01T04:11:31.303Z,996.18
2016-10-01T04:11:53.018Z,996.12
2016-10-01T04:12:14.727Z,996.08
2016-10-01T04:12:36.429Z,996.05
2016-10-01T04:12:58.146Z,996.03
2016-10-01T04:13:19.846Z,996.04
2016-10-01T04:13:41.904Z,996.07
2016-10-01T04:14:03.613Z,996.04
2016-10-01T04:14:25.324Z,996.07
2016-10-01T04:14:47.044Z,995.99
2016-10-01T04:15:08.762Z,996.26
2016-10-01T04:15:30.470Z,996.18
2016-10-01T04:15:52.195Z,996.21
2016-10-01T04:16:13.910Z,996.10
2016-10-01T04:16:35.616Z,996.13
2016-10-01T04:16:57.328Z,996.03
2016-10-01T04:17:19.061Z,996.11
2016-10-01T04:17:40.780Z,996.10
2016-10-01T04:18:02.487Z,995.98
2016-10-01T04:18:24.202Z,996.05
2016-10-01T04:18:45.917Z,996.08
2016-10-01T04:19:07.622Z,996.11
2016-10-01T04:19:29.347Z,996.07
2016-10-01T04:19:51.060Z,996.00
2016-10-01T04:20:12.762Z,995.98
2016-10-01T04:20:34.471Z,996.00
2016-10-01T04:20:56.304Z,996.10
2016-10-01T04:21:18.013Z,996.13
2016-10-01T04:21:39.724Z,996.02
2016-10-01T04:22:01.447Z,996.07
2016-10-01T04:22:23.153Z,996.06
2016-10-01T04:22:44.928Z,996.08
2016-10-01T04:23:06.640Z,996.07
2016-10-01T04:23:28.361Z,996.13
2016-10-01T04:23:50.068Z,996.20
2016-10-01T04:24:11.793Z,996.17
2016-10-01T04:24:33.510Z,996.18
2016-10-01T04:24:55.210Z,996.02
2016-10-01T04:25:17.054Z,996.11
2016-10-01T04:25:38.771Z,996.10
2016-10-01T04:26:00.489Z,995.99
2016-10-01T04:26:22.201Z,996.00
2016-10-01T04:26:43.908Z,996.02
2016-10-01T04:27:05.618Z,995.96
2016-10-01T04:27:27.327Z,995.93
2016-10-01T04:27:49.053Z,995.92
2016-10-01T04:28:10.762Z,996.04
2016-10-01T04:28:32.464Z,996.08
2016-10-01T04:28:54.174Z,996.06
2016-10-01T04:29:15.890Z,996.04
2016-10-01T04:29:37.605Z,996.02
2016-10-01T04:29:59.315Z,996.04
2016-10-01T04:30:21.030Z,996.01
2016-10-01T04:30:42.756Z,995.92
2016-10-01T04:31:04.461Z,995.89
2016-10-01T04:31:26.173Z,995.89
2016-10-01T04:31:47.882Z,995.99